Time;durP1;ratioP1;P1;durP2;ratioP2;P2;SDS_P1;SDS_P2;PMS_P1;PMS_P2;Temp;Humidity;BMP_temperature;BMP_pressure;BME280_temperature;BME280_humidity;BME280_pressure;Samples;Min_cycle;Max_cycle;Signal;HPM_P1;HPM_P2
2023/05/27 00:01:38;;;;;;;0.00;0.00;;;;;;;8.70;100.00;101759.84;4956754;28;20294;-76
2023/05/27 00:04:04;;;;;;;0.30;0.30;;;;;;;8.60;100.00;101763.31;4973849;28;20182;-76
2023/05/27 00:06:29;;;;;;;0.23;0.23;;;;;;;8.52;100.00;101765.72;4973789;28;20268;-76
2023/05/27 00:08:55;;;;;;;3.93;1.30;;;;;;;8.31;100.00;101759.34;4973387;28;20288;-74
2023/05/27 00:11:21;;;;;;;0.10;0.10;;;;;;;8.26;100.00;101757.41;4973904;28;20186;-76
2023/05/27 00:13:46;;;;;;;0.20;0.20;;;;;;;8.27;100.00;101759.03;4973897;28;20257;-74
2023/05/27 00:16:12;;;;;;;2.90;2.57;;;;;;;8.24;100.00;101764.19;4956328;28;20645;-76
2023/05/27 00:18:37;;;;;;;0.50;0.30;;;;;;;8.09;100.00;101762.19;4973776;28;20220;-76
2023/05/27 00:21:02;;;;;;;1.30;0.67;;;;;;;8.00;100.00;101759.16;4956069;28;20197;-74
2023/05/27 00:23:28;;;;;;;0.00;0.00;;;;;;;8.05;100.00;101748.28;4955928;28;20209;-76
2023/05/27 00:25:53;;;;;;;1.37;1.37;;;;;;;8.02;100.00;101746.09;4956376;28;20208;-76
2023/05/27 00:28:18;;;;;;;0.20;0.20;;;;;;;8.03;100.00;101746.91;4972973;28;20691;-76
2023/05/27 00:30:44;;;;;;;0.00;0.00;;;;;;;8.00;100.00;101744.72;4973603;28;20260;-76
2023/05/27 00:33:09;;;;;;;0.20;0.20;;;;;;;8.00;100.00;101750.16;4973055;28;20218;-76
2023/05/27 00:35:34;;;;;;;1.93;1.83;;;;;;;7.99;100.00;101745.81;4973468;28;20181;-77
2023/05/27 00:38:00;;;;;;;0.43;0.43;;;;;;;7.84;100.00;101746.50;4972944;28;20228;-76
2023/05/27 00:40:28;;;;;;;0.00;0.00;;;;;;;7.95;100.00;101756.38;4956010;28;20188;-75
2023/05/27 00:42:54;;;;;;;0.00;0.00;;;;;;;7.95;100.00;101758.28;4973331;28;20201;-76
2023/05/27 00:45:21;;;;;;;0.43;0.43;;;;;;;7.87;100.00;101750.59;4973359;28;20667;-76
2023/05/27 00:47:46;;;;;;;0.73;0.73;;;;;;;7.88;100.00;101754.97;4972494;28;20213;-77
2023/05/27 00:50:11;;;;;;;1.60;1.60;;;;;;;7.81;100.00;101757.94;4973475;28;20185;-76
2023/05/27 00:52:37;;;;;;;5.10;0.40;;;;;;;7.75;100.00;101737.19;4973009;28;20683;-76
2023/05/27 00:55:02;;;;;;;0.20;0.10;;;;;;;7.70;100.00;101750.75;4955781;28;20212;-76
2023/05/27 00:57:28;;;;;;;0.13;0.13;;;;;;;7.69;100.00;101749.94;4972711;28;20649;-76
2023/05/27 00:59:53;;;;;;;0.00;0.00;;;;;;;7.59;100.00;101751.75;4954762;28;20198;-77
2023/05/27 01:02:18;;;;;;;1.53;1.43;;;;;;;7.56;100.00;101755.81;4972085;28;20256;-76
2023/05/27 01:04:46;;;;;;;2.27;0.73;;;;;;;7.47;100.00;101754.63;4972922;28;20189;-76
2023/05/27 01:07:46;;;;;;;1.57;1.57;;;;;;;7.58;100.00;101758.25;4972285;28;20193;-76
2023/05/27 01:10:23;;;;;;;0.13;0.13;;;;;;;7.45;100.00;101749.44;4972062;28;20233;-76
2023/05/27 01:13:29;;;;;;;0.50;0.50;;;;;;;7.34;100.00;101752.31;4972597;28;20305;-76
2023/05/27 01:15:59;;;;;;;0.20;0.20;;;;;;;7.27;100.00;101755.28;4875320;29;20249;-74
2023/05/27 01:18:29;;;;;;;2.70;0.67;;;;;;;7.17;100.00;101752.44;4958235;28;20197;-76
2023/05/27 01:21:05;;;;;;;1.80;1.80;;;;;;;7.08;100.00;101749.34;4972528;28;20205;-76
2023/05/27 01:23:31;;;;;;;0.30;0.30;;;;;;;7.00;100.00;101755.25;4972677;28;20730;-76
2023/05/27 01:25:56;;;;;;;0.87;0.87;;;;;;;7.00;100.00;101744.38;4972419;28;20198;-76
2023/05/27 01:28:22;;;;;;;0.50;0.50;;;;;;;7.11;100.00;101742.59;4954480;28;20643;-76
2023/05/27 01:30:47;;;;;;;0.87;0.87;;;;;;;7.11;100.00;101748.88;4954935;28;20205;-76
2023/05/27 01:33:20;;;;;;;0.00;0.00;;;;;;;7.10;100.00;101744.50;4954789;28;20248;-76
2023/05/27 01:35:53;;;;;;;17.63;0.63;;;;;;;7.01;100.00;101747.94;4972120;28;20182;-76
2023/05/27 01:38:23;;;;;;;0.10;0.10;;;;;;;6.94;100.00;101739.97;4971833;28;20177;-76
2023/05/27 01:40:50;;;;;;;0.77;0.77;;;;;;;6.94;100.00;101742.69;4971850;28;20185;-76
2023/05/27 01:43:18;;;;;;;10.40;0.47;;;;;;;6.87;100.00;101739.34;4972006;28;20224;-76
2023/05/27 01:45:44;;;;;;;0.67;0.67;;;;;;;6.88;100.00;101738.28;4972341;28;20208;-76
2023/05/27 01:48:09;;;;;;;7.50;0.50;;;;;;;6.77;100.00;101741.94;4971359;28;20680;-76
2023/05/27 01:50:35;;;;;;;0.97;0.70;;;;;;;6.65;100.00;101733.09;4954638;28;20548;-73
2023/05/27 01:53:01;;;;;;;0.40;0.40;;;;;;;6.60;100.00;101738.47;4973065;28;20209;-77
2023/05/27 01:55:27;;;;;;;0.83;0.73;;;;;;;6.62;100.00;101730.91;4973311;28;20181;-73
2023/05/27 01:57:53;;;;;;;0.77;0.77;;;;;;;6.64;100.00;101731.47;4954016;28;20200;-75
2023/05/27 02:00:18;;;;;;;0.40;0.40;;;;;;;6.67;100.00;101733.69;4971667;28;20181;-75
2023/05/27 02:02:44;;;;;;;0.27;0.27;;;;;;;6.60;100.00;101731.16;4971687;28;20719;-75
2023/05/27 02:05:10;;;;;;;0.27;0.20;;;;;;;6.61;100.00;101737.41;4971893;28;20186;-75
2023/05/27 02:07:36;;;;;;;0.67;0.67;;;;;;;6.57;100.00;101718.91;4971499;28;20292;-75
2023/05/27 02:10:02;;;;;;;22.67;1.40;;;;;;;6.55;100.00;101731.09;4972317;28;20181;-74
2023/05/27 02:12:27;;;;;;;0.27;0.27;;;;;;;6.47;100.00;101726.91;4976446;28;20783;-75
2023/05/27 02:14:52;;;;;;;1.23;1.13;;;;;;;6.45;100.00;101722.81;4978388;28;20239;-75
2023/05/27 02:17:18;;;;;;;0.87;0.47;;;;;;;6.52;100.00;101726.19;4977528;28;20290;-73
2023/05/27 02:19:43;;;;;;;1.27;1.27;;;;;;;6.47;100.00;101726.09;4978121;28;20227;-75
2023/05/27 02:22:09;;;;;;;0.00;0.00;;;;;;;6.57;100.00;101723.53;4978171;28;20351;-75
2023/05/27 02:24:34;;;;;;;0.40;0.40;;;;;;;6.59;100.00;101723.25;4960783;28;20192;-75
2023/05/27 02:27:01;;;;;;;1.10;1.10;;;;;;;6.47;100.00;101726.91;4960215;28;20216;-75
2023/05/27 02:29:27;;;;;;;0.83;0.77;;;;;;;6.41;100.00;101730.66;4979644;28;20205;-77
2023/05/27 02:31:52;;;;;;;0.40;0.37;;;;;;;6.38;100.00;101733.06;4961935;28;20260;-75
2023/05/27 02:34:17;;;;;;;0.80;0.80;;;;;;;6.33;100.00;101731.06;4962144;28;20189;-76
2023/05/27 02:36:43;;;;;;;0.33;0.33;;;;;;;6.34;100.00;101735.44;4979463;28;20236;-77
2023/05/27 02:39:08;;;;;;;0.30;0.30;;;;;;;6.35;100.00;101736.25;4979202;28;20556;-77
2023/05/27 02:41:34;;;;;;;1.57;1.57;;;;;;;6.28;100.00;101730.19;4979653;28;20182;-77
2023/05/27 02:43:59;;;;;;;0.37;0.17;;;;;;;6.26;100.00;101727.75;4979544;28;20189;-77
2023/05/27 02:46:24;;;;;;;0.33;0.33;;;;;;;6.30;100.00;101733.47;4980307;28;20240;-75
2023/05/27 02:48:50;;;;;;;0.73;0.73;;;;;;;6.24;100.00;101733.44;4979127;28;20284;-77
2023/05/27 02:51:15;;;;;;;0.93;0.93;;;;;;;6.08;100.00;101730.75;4979270;28;20181;-76
2023/05/27 02:53:40;;;;;;;0.00;0.00;;;;;;;6.10;100.00;101731.31;4962398;28;20687;-77
2023/05/27 02:56:06;;;;;;;1.03;1.03;;;;;;;6.12;100.00;101727.28;4979195;28;20182;-76
2023/05/27 02:58:31;;;;;;;0.33;0.33;;;;;;;6.12;100.00;101731.88;4979399;28;20196;-75
2023/05/27 03:00:56;;;;;;;4.00;3.03;;;;;;;6.05;100.00;101725.81;4961823;28;20193;-77
2023/05/27 03:03:23;;;;;;;0.00;0.00;;;;;;;5.99;100.00;101727.63;4979094;28;20264;-77
2023/05/27 03:05:48;;;;;;;0.10;0.10;;;;;;;5.90;100.00;101721.78;4962032;28;20196;-77
2023/05/27 03:08:14;;;;;;;0.00;0.00;;;;;;;5.94;100.00;101727.56;4961441;28;20213;-77
2023/05/27 03:10:39;;;;;;;0.23;0.23;;;;;;;5.99;100.00;101724.09;4962490;28;20223;-77
2023/05/27 03:13:04;;;;;;;0.40;0.30;;;;;;;5.99;100.00;101724.09;4979736;28;20209;-77
2023/05/27 03:15:31;;;;;;;0.30;0.30;;;;;;;6.01;100.00;101727.38;4979507;28;20668;-76
2023/05/27 03:17:56;;;;;;;0.20;0.20;;;;;;;6.13;100.00;101728.09;4977507;28;20547;-75
2023/05/27 03:20:22;;;;;;;0.30;0.30;;;;;;;6.11;100.00;101732.97;4977597;28;20236;-75
2023/05/27 03:22:47;;;;;;;1.53;0.67;;;;;;;6.12;100.00;101734.59;4977453;28;20443;-77
2023/05/27 03:25:13;;;;;;;0.20;0.20;;;;;;;6.17;100.00;101740.09;4973716;28;20228;-75
2023/05/27 03:27:40;;;;;;;0.00;0.00;;;;;;;6.07;100.00;101734.50;4974197;28;20209;-77
2023/05/27 03:30:07;;;;;;;0.30;0.30;;;;;;;6.06;100.00;101732.88;4957160;28;20224;-77
2023/05/27 03:32:32;;;;;;;0.47;0.47;;;;;;;6.07;100.00;101737.22;4974274;28;20216;-77
2023/05/27 03:34:57;;;;;;;0.00;0.00;;;;;;;6.11;100.00;101735.69;4974270;28;20189;-77
2023/05/27 03:37:23;;;;;;;0.27;0.27;;;;;;;6.19;100.00;101738.75;4974015;28;20193;-75
2023/05/27 03:39:48;;;;;;;0.00;0.00;;;;;;;6.26;100.00;101736.69;4974494;28;20555;-77
2023/05/27 03:42:13;;;;;;;0.00;0.00;;;;;;;6.31;100.00;101738.66;4973813;28;20205;-77
2023/05/27 03:44:38;;;;;;;0.40;0.40;;;;;;;6.34;100.00;101740.88;4974481;28;20244;-77
2023/05/27 03:47:05;;;;;;;0.33;0.33;;;;;;;6.26;100.00;101738.59;4973727;28;20939;-77
2023/05/27 03:49:30;;;;;;;0.00;0.00;;;;;;;6.28;100.00;101735.63;4974339;28;20205;-76
2023/05/27 03:51:55;;;;;;;0.50;0.47;;;;;;;6.23;100.00;101739.94;4974003;28;20217;-75
2023/05/27 03:54:20;;;;;;;3.10;0.73;;;;;;;6.23;100.00;101733.69;4974132;28;20236;-77
2023/05/27 03:56:46;;;;;;;0.63;0.63;;;;;;;6.24;100.00;101729.88;4974135;28;20225;-76
2023/05/27 03:59:11;;;;;;;0.70;0.70;;;;;;;6.25;100.00;101728.81;4973679;28;20189;-75
2023/05/27 04:01:37;;;;;;;0.43;0.33;;;;;;;6.42;100.00;101721.44;4956198;28;20704;-77
2023/05/27 04:04:02;;;;;;;0.43;0.43;;;;;;;6.54;100.00;101719.44;4973988;28;20188;-76
2023/05/27 04:06:28;;;;;;;0.10;0.10;;;;;;;6.61;100.00;101721.13;4974072;28;20186;-77
2023/05/27 04:08:53;;;;;;;0.73;0.73;;;;;;;6.71;100.00;101716.63;4973372;28;20220;-77
2023/05/27 04:11:18;;;;;;;0.00;0.00;;;;;;;6.84;100.00;101718.13;4973719;28;20204;-77
2023/05/27 04:13:44;;;;;;;0.13;0.13;;;;;;;6.85;100.00;101707.00;4973977;28;20687;-77
2023/05/27 04:16:10;;;;;;;0.00;0.00;;;;;;;6.90;100.00;101711.66;4973904;28;20189;-77
2023/05/27 04:18:35;;;;;;;0.17;0.17;;;;;;;6.96;100.00;101705.22;4973436;28;20174;-77
2023/05/27 04:21:00;;;;;;;0.20;0.20;;;;;;;7.00;100.00;101705.53;4956672;28;20189;-77
2023/05/27 04:23:26;;;;;;;0.00;0.00;;;;;;;7.01;100.00;101707.16;4973748;28;20198;-76
2023/05/27 04:25:52;;;;;;;0.10;0.10;;;;;;;7.03;100.00;101711.25;4973996;28;20181;-76
2023/05/27 04:28:17;;;;;;;0.00;0.00;;;;;;;7.13;100.00;101713.28;4975960;28;20205;-74
2023/05/27 04:30:45;;;;;;;0.40;0.40;;;;;;;7.20;100.00;101705.72;4974062;28;20185;-77
2023/05/27 04:33:11;;;;;;;1.27;1.17;;;;;;;7.27;100.00;101708.25;4972278;28;20206;-84
2023/05/27 04:35:36;;;;;;;0.80;0.80;;;;;;;7.41;100.00;101704.00;4968874;28;20300;-78
2023/05/27 04:38:02;;;;;;;0.57;0.57;;;;;;;7.45;100.00;101708.66;4974777;28;20301;-82
2023/05/27 04:40:29;;;;;;;0.10;0.10;;;;;;;7.51;100.00;101704.06;4975160;28;20229;-79
2023/05/27 04:42:55;;;;;;;0.20;0.20;;;;;;;7.57;100.00;101705.78;4975705;28;20620;-81
2023/05/27 04:45:29;;;;;;;1.13;0.40;;;;;;;7.63;100.00;101703.91;4975793;28;20177;-83
2023/05/27 04:47:55;;;;;;;0.53;0.53;;;;;;;7.68;100.00;101704.78;4967425;28;20718;-81
2023/05/27 04:50:20;;;;;;;0.10;0.10;;;;;;;7.70;100.00;101702.63;4976328;28;20185;-82
2023/05/27 04:52:46;;;;;;;0.30;0.30;;;;;;;7.67;100.00;101702.31;4958367;28;20770;-79
2023/05/27 04:55:11;;;;;;;0.73;0.73;;;;;;;7.75;100.00;101705.34;4975865;28;20192;-80
2023/05/27 04:57:40;;;;;;;1.43;1.37;;;;;;;7.75;100.00;101707.25;4959168;28;20181;-85
2023/05/27 05:02:35;;;;;;;0.00;0.00;;;;;;;7.90;100.00;101696.47;4976789;28;20281;-84
2023/05/27 05:05:08;;;;;;;0.00;0.00;;;;;;;8.06;100.00;101711.00;4959344;28;20652;-85
2023/05/27 05:07:37;;;;;;;0.00;0.00;;;;;;;8.21;100.00;101704.81;4973258;28;20209;-77
2023/05/27 05:10:07;;;;;;;0.00;0.00;;;;;;;8.26;100.00;101713.84;4973863;28;20240;-77
2023/05/27 05:12:33;;;;;;;0.20;0.20;;;;;;;8.22;100.00;101728.22;4973254;28;20273;-77
2023/05/27 05:14:58;;;;;;;0.67;0.67;;;;;;;8.30;100.00;101736.72;4956455;28;20660;-77
2023/05/27 05:17:24;;;;;;;0.00;0.00;;;;;;;8.37;100.00;101728.34;4973841;28;20186;-76
2023/05/27 05:19:51;;;;;;;0.00;0.00;;;;;;;8.46;100.00;101734.13;4956531;28;20182;-76
2023/05/27 05:22:18;;;;;;;0.63;0.63;;;;;;;8.51;100.00;101740.38;4973607;28;20256;-77
2023/05/27 05:24:46;;;;;;;0.00;0.00;;;;;;;8.57;100.00;101736.63;4956206;28;20676;-76
2023/05/27 05:27:12;;;;;;;0.00;0.00;;;;;;;8.54;100.00;101742.59;4955827;28;20181;-77
2023/05/27 05:29:37;;;;;;;0.20;0.20;;;;;;;8.63;100.00;101749.16;4973388;28;20205;-78
2023/05/27 05:32:04;;;;;;;0.10;0.10;;;;;;;8.73;100.00;101747.56;4973719;28;20241;-78
2023/05/27 05:34:29;;;;;;;0.57;0.57;;;;;;;8.73;100.00;101742.13;4956572;28;20178;-77
2023/05/27 05:36:54;;;;;;;0.00;0.00;;;;;;;8.71;100.00;101750.56;4956576;28;20670;-74
2023/05/27 05:39:20;;;;;;;0.00;0.00;;;;;;;8.78;100.00;101756.56;4974124;28;20185;-78
2023/05/27 05:41:45;;;;;;;0.50;0.37;;;;;;;8.79;100.00;101747.31;4973882;28;20272;-77
2023/05/27 05:44:11;;;;;;;0.10;0.10;;;;;;;8.77;100.00;101746.75;4973734;28;20209;-77
2023/05/27 05:46:36;;;;;;;0.00;0.00;;;;;;;8.84;100.00;101741.91;4973405;28;20206;-76
2023/05/27 05:49:02;;;;;;;0.00;0.00;;;;;;;8.95;100.00;101753.63;4973422;28;20613;-78
2023/05/27 05:51:27;;;;;;;0.00;0.00;;;;;;;9.06;100.00;101749.03;4973228;28;20182;-77
2023/05/27 05:53:52;;;;;;;0.00;0.00;;;;;;;9.04;100.00;101745.75;4972473;28;20579;-77
2023/05/27 05:56:18;;;;;;;0.00;0.00;;;;;;;9.00;100.00;101750.94;4972638;28;20181;-78
2023/05/27 05:58:43;;;;;;;0.00;0.00;;;;;;;9.10;100.00;101744.69;4973149;28;20660;-76
2023/05/27 06:01:08;;;;;;;0.00;0.00;;;;;;;9.19;100.00;101743.06;4973585;28;20713;-78
2023/05/27 06:03:34;;;;;;;0.00;0.00;;;;;;;9.23;100.00;101738.69;4973416;28;20700;-77
2023/05/27 06:05:59;;;;;;;0.00;0.00;;;;;;;9.26;100.00;101738.19;4976352;28;20536;-77
2023/05/27 06:08:24;;;;;;;0.00;0.00;;;;;;;9.27;100.00;101741.72;4980129;28;20285;-82
2023/05/27 06:10:50;;;;;;;0.50;0.50;;;;;;;9.41;100.00;101734.66;4977164;28;20185;-77
2023/05/27 06:13:16;;;;;;;1.83;0.60;;;;;;;9.40;100.00;101735.72;4977190;28;20242;-78
2023/05/27 06:15:41;;;;;;;0.00;0.00;;;;;;;9.49;100.00;101745.00;4976225;28;20182;-75
2023/05/27 06:18:07;;;;;;;0.00;0.00;;;;;;;9.62;100.00;101751.84;4976996;28;20301;-79
2023/05/27 06:20:32;;;;;;;0.00;0.00;;;;;;;9.75;100.00;101749.38;4977198;28;20529;-77
2023/05/27 06:22:57;;;;;;;0.00;0.00;;;;;;;9.87;100.00;101757.28;4975466;28;20201;-78
2023/05/27 06:25:22;;;;;;;0.00;0.00;;;;;;;10.01;100.00;101761.09;4967304;28;20611;-77
2023/05/27 06:27:48;;;;;;;0.00;0.00;;;;;;;10.13;100.00;101749.91;4972279;28;20201;-76
2023/05/27 06:30:13;;;;;;;0.00;0.00;;;;;;;10.17;100.00;101748.25;4967383;28;20186;-76
2023/05/27 06:32:39;;;;;;;0.00;0.00;;;;;;;10.19;100.00;101751.50;4971399;28;20217;-74
2023/05/27 06:35:04;;;;;;;0.00;0.00;;;;;;;10.36;100.00;101748.50;4952108;28;20684;-76
2023/05/27 06:37:30;;;;;;;0.00;0.00;;;;;;;10.42;100.00;101747.41;4969510;28;20178;-78
2023/05/27 06:39:55;;;;;;;0.40;0.30;;;;;;;10.60;100.00;101740.50;4948031;29;20182;-76
2023/05/27 06:42:22;;;;;;;0.43;0.43;;;;;;;10.69;100.00;101736.06;4944284;28;20609;-78
2023/05/27 06:44:48;;;;;;;1.13;1.03;;;;;;;10.82;100.00;101743.66;4951491;28;20189;-78
2023/05/27 06:47:13;;;;;;;1.07;1.07;;;;;;;10.59;100.00;101731.47;4972583;28;20268;-77
2023/05/27 06:49:38;;;;;;;0.70;0.70;;;;;;;10.67;100.00;101730.06;4955998;28;20222;-77
2023/05/27 06:52:04;;;;;;;0.00;0.00;;;;;;;10.85;100.00;101745.84;4972720;28;20198;-76
2023/05/27 06:54:30;;;;;;;2.97;1.90;;;;;;;10.78;100.00;101737.13;4973043;28;20182;-76
2023/05/27 06:56:55;;;;;;;1.60;1.50;;;;;;;10.82;100.00;101738.19;4971876;28;20229;-76
2023/05/27 06:59:21;;;;;;;8.07;3.40;;;;;;;10.85;100.00;101739.53;4973963;28;20260;-78
2023/05/27 07:01:46;;;;;;;0.00;0.00;;;;;;;11.00;100.00;101744.94;4976552;28;20207;-77
2023/05/27 07:04:11;;;;;;;0.00;0.00;;;;;;;11.10;100.00;101742.13;4976396;28;20679;-78
2023/05/27 07:06:37;;;;;;;0.07;0.07;;;;;;;11.38;100.00;101746.06;4976537;28;20185;-77
2023/05/27 07:09:03;;;;;;;0.20;0.20;;;;;;;11.43;100.00;101747.94;4975747;28;20213;-78
2023/05/27 07:11:28;;;;;;;0.00;0.00;;;;;;;11.54;100.00;101754.97;4976483;28;20291;-76
2023/05/27 07:13:53;;;;;;;0.10;0.10;;;;;;;11.66;100.00;101741.72;4976472;28;20196;-78
2023/05/27 07:16:19;;;;;;;26.40;2.90;;;;;;;11.59;99.17;101738.53;4976511;28;20278;-78
2023/05/27 07:18:44;;;;;;;0.27;0.27;;;;;;;11.49;99.54;101741.34;4975526;28;20213;-78
2023/05/27 07:21:10;;;;;;;2.53;2.00;;;;;;;11.56;100.00;101730.88;4976981;28;20260;-77
2023/05/27 07:23:35;;;;;;;0.00;0.00;;;;;;;11.51;99.86;101733.66;4976396;28;20206;-78
2023/05/27 07:26:00;;;;;;;12.17;1.63;;;;;;;11.88;97.60;101735.84;4975767;28;20193;-78
2023/05/27 07:28:26;;;;;;;0.00;0.00;;;;;;;12.03;96.43;101726.66;4975703;28;20206;-77
2023/05/27 07:30:51;;;;;;;0.10;0.10;;;;;;;12.20;96.28;101736.06;4976801;28;20186;-78
2023/05/27 07:33:17;;;;;;;0.20;0.20;;;;;;;12.27;95.17;101716.50;4975007;28;20213;-76
2023/05/27 07:35:42;;;;;;;0.50;0.50;;;;;;;12.30;94.15;101713.22;4974634;28;20213;-78
2023/05/27 07:38:08;;;;;;;0.67;0.67;;;;;;;12.26;91.51;101711.31;4975277;28;20556;-77
2023/05/27 07:40:33;;;;;;;15.43;1.63;;;;;;;12.37;91.79;101708.19;4964013;28;20182;-78
2023/05/27 07:42:59;;;;;;;0.70;0.70;;;;;;;12.59;92.65;101713.13;4941458;28;20286;-77
2023/05/27 07:45:24;;;;;;;0.10;0.10;;;;;;;12.45;90.81;101699.31;4951456;28;20194;-78
2023/05/27 07:47:49;;;;;;;1.13;1.07;;;;;;;12.64;90.66;101713.06;4974459;28;20253;-76
2023/05/27 07:50:15;;;;;;;8.13;1.07;;;;;;;12.74;91.61;101707.44;4971696;28;20185;-78
2023/05/27 07:52:41;;;;;;;0.00;0.00;;;;;;;12.82;89.65;101708.69;4975303;28;20233;-78
2023/05/27 07:55:06;;;;;;;1.37;1.13;;;;;;;12.74;87.76;101698.41;4975528;28;20241;-76
2023/05/27 07:57:32;;;;;;;4.40;2.30;;;;;;;12.61;87.00;101694.47;4974655;28;20182;-75
2023/05/27 07:59:57;;;;;;;5.80;1.10;;;;;;;12.78;87.08;101692.03;4958206;28;20288;-78
2023/05/27 08:02:22;;;;;;;0.17;0.17;;;;;;;12.92;87.36;101700.34;4976180;28;20222;-76
2023/05/27 08:04:48;;;;;;;0.00;0.00;;;;;;;13.06;87.56;101683.94;4965868;28;20190;-76
2023/05/27 08:07:13;;;;;;;0.00;0.00;;;;;;;13.24;87.59;101685.06;4972363;28;20189;-76
2023/05/27 08:09:38;;;;;;;0.20;0.20;;;;;;;13.36;85.01;101674.44;4973736;28;20758;-74
2023/05/27 08:12:06;;;;;;;0.23;0.23;;;;;;;13.36;83.17;101671.69;4973753;28;20218;-77
2023/05/27 08:14:31;;;;;;;1.10;0.33;;;;;;;13.48;82.14;101666.56;4976042;28;20178;-78
2023/05/27 08:16:57;;;;;;;0.10;0.10;;;;;;;13.41;81.93;101657.88;4975349;28;20561;-77
2023/05/27 08:19:22;;;;;;;0.10;0.10;;;;;;;13.56;83.35;101665.84;4976206;28;20193;-78
2023/05/27 08:21:48;;;;;;;0.20;0.07;;;;;;;13.63;82.44;101655.31;4975965;28;20212;-78
2023/05/27 08:24:14;;;;;;;1.50;1.13;;;;;;;13.80;82.44;101656.66;4976328;28;20189;-77
2023/05/27 08:26:40;;;;;;;3.20;0.60;;;;;;;13.73;79.76;101637.81;4975439;28;20192;-78
2023/05/27 08:29:05;;;;;;;0.07;0.07;;;;;;;13.90;79.49;101642.72;4975960;28;20213;-78
2023/05/27 08:31:31;;;;;;;0.33;0.33;;;;;;;13.83;78.61;101636.81;4975431;28;20186;-76
2023/05/27 08:33:56;;;;;;;0.00;0.00;;;;;;;13.95;79.40;101640.69;4975591;28;20189;-75
2023/05/27 08:36:22;;;;;;;4.77;1.40;;;;;;;13.95;77.57;101615.97;4973493;28;20193;-75
2023/05/27 08:38:47;;;;;;;0.40;0.40;;;;;;;13.85;77.72;101620.84;4976872;28;20174;-80
2023/05/27 08:41:14;;;;;;;11.60;2.33;;;;;;;13.95;80.01;101639.88;4975506;28;20193;-78
2023/05/27 08:43:41;;;;;;;2.63;1.90;;;;;;;14.03;78.55;101619.09;4974903;28;20304;-77
2023/05/27 08:46:07;;;;;;;7.20;2.30;;;;;;;13.92;76.97;101616.56;4973908;28;20672;-74
2023/05/27 08:48:32;;;;;;;4.00;2.10;;;;;;;14.09;77.40;101615.16;4973863;28;20242;-74
2023/05/27 08:50:59;;;;;;;0.97;0.97;;;;;;;14.05;77.75;101625.94;4973354;28;20221;-76
2023/05/27 08:53:26;;;;;;;0.13;0.13;;;;;;;14.07;75.34;101604.47;4973162;28;20721;-77
2023/05/27 08:55:52;;;;;;;7.53;0.57;;;;;;;14.11;75.64;101605.47;4973936;28;20181;-76
2023/05/27 08:58:19;;;;;;;1.93;1.57;;;;;;;14.42;76.00;101619.38;4973275;28;20180;-76
2023/05/27 09:00:47;;;;;;;0.10;0.10;;;;;;;14.25;75.80;101608.22;4976327;28;20534;-79
2023/05/27 09:03:16;;;;;;;3.43;0.43;;;;;;;14.42;76.00;101608.38;4957148;28;20260;-80
2023/05/27 09:05:41;;;;;;;3.90;0.30;;;;;;;14.39;75.54;101610.94;4973247;28;20638;-77
2023/05/27 09:08:07;;;;;;;1.83;0.63;;;;;;;14.56;77.64;101606.44;4972903;28;20236;-76
2023/05/27 09:10:40;;;;;;;7.00;1.80;;;;;;;14.89;74.15;101596.03;4974463;28;20194;-78
2023/05/27 09:13:05;;;;;;;12.07;2.50;;;;;;;14.86;72.66;101595.84;4955643;28;20214;-76
2023/05/27 09:15:32;;;;;;;1.90;1.67;;;;;;;14.89;72.38;101592.47;4975754;28;20652;-78
2023/05/27 09:17:58;;;;;;;0.10;0.10;;;;;;;14.69;72.98;101593.78;4975572;28;20233;-78
2023/05/27 09:20:27;;;;;;;1.00;0.73;;;;;;;14.89;73.08;101596.03;4969447;28;20190;-74
2023/05/27 09:23:00;;;;;;;0.73;0.60;;;;;;;14.70;73.10;101594.59;4971016;28;20628;-76
2023/05/27 09:25:27;;;;;;;2.63;1.00;;;;;;;14.67;73.58;101587.78;4965436;28;20228;-75
2023/05/27 09:27:52;;;;;;;0.43;0.03;;;;;;;15.01;74.94;101602.91;4971999;28;20225;-76
2023/05/27 09:30:20;;;;;;;5.53;3.07;;;;;;;14.97;72.21;101575.22;4972277;28;20656;-74
2023/05/27 09:32:46;;;;;;;6.27;0.63;;;;;;;15.09;71.80;101583.72;4970420;28;20226;-76
2023/05/27 09:35:13;;;;;;;1.80;0.83;;;;;;;15.32;72.43;101592.75;4972214;28;20648;-76
2023/05/27 09:37:38;;;;;;;0.00;0.00;;;;;;;15.49;73.07;101592.06;4971734;28;20196;-74
2023/05/27 09:40:05;;;;;;;0.97;0.80;;;;;;;15.32;71.52;101580.94;4954915;28;20185;-76
2023/05/27 09:42:48;;;;;;;7.93;1.77;;;;;;;15.22;71.97;101572.97;4974203;28;20744;-76
2023/05/27 09:45:16;;;;;;;3.10;1.97;;;;;;;15.37;71.28;101573.38;4974865;28;20189;-78
2023/05/27 09:47:50;;;;;;;4.27;3.97;;;;;;;15.22;68.61;101562.75;4972410;28;20197;-77
2023/05/27 09:50:16;;;;;;;6.87;2.10;;;;;;;15.49;68.94;101564.53;4956113;28;20727;-76
2023/05/27 09:52:43;;;;;;;0.23;0.23;;;;;;;15.74;69.61;101565.78;4971823;28;20205;-74
2023/05/27 09:55:09;;;;;;;5.20;1.73;;;;;;;15.67;68.56;101557.97;4971916;28;20232;-78
2023/05/27 09:57:38;;;;;;;0.67;0.50;;;;;;;15.60;67.56;101556.78;4973861;28;20193;-78
2023/05/27 10:00:15;;;;;;;0.83;0.40;;;;;;;15.82;67.01;101545.72;4973647;28;20193;-76
2023/05/27 10:02:42;;;;;;;0.43;0.43;;;;;;;15.80;66.81;101549.91;4971935;28;20296;-75
2023/05/27 10:05:08;;;;;;;0.00;0.00;;;;;;;16.01;68.03;101551.75;4971887;28;20194;-76
2023/05/27 10:07:39;;;;;;;1.67;1.57;;;;;;;16.03;67.13;101543.97;4971238;28;20186;-76
2023/05/27 10:10:09;;;;;;;12.97;1.97;;;;;;;15.96;65.95;101529.84;4954032;28;20227;-75
2023/05/27 10:12:46;;;;;;;3.17;1.93;;;;;;;15.92;66.32;101533.59;4971857;28;20699;-75
2023/05/27 10:15:28;;;;;;;0.90;0.57;;;;;;;15.97;69.21;101539.75;4974121;28;20185;-77
2023/05/27 10:17:58;;;;;;;0.40;0.40;;;;;;;16.03;66.42;101524.66;4954352;28;20547;-77
2023/05/27 10:20:34;;;;;;;0.80;0.80;;;;;;;16.36;66.14;101532.50;4971371;28;20196;-76
2023/05/27 10:23:30;;;;;;;2.63;1.93;;;;;;;16.17;65.67;101521.78;4971784;28;20205;-76
2023/05/27 10:26:01;;;;;;;12.40;0.90;;;;;;;16.33;66.28;101525.69;4951654;28;20252;-76
2023/05/27 10:28:28;;;;;;;2.87;1.90;;;;;;;16.07;64.63;101511.06;4971396;28;20241;-75
2023/05/27 10:31:04;;;;;;;5.33;2.23;;;;;;;16.39;65.21;101520.03;4971549;28;20187;-76
2023/05/27 10:33:30;;;;;;;0.20;0.20;;;;;;;16.63;65.24;101518.38;4975636;28;20221;-77
2023/05/27 10:35:56;;;;;;;1.00;0.73;;;;;;;16.95;65.73;101524.56;4960440;28;20225;-78
2023/05/27 10:38:22;;;;;;;2.13;1.40;;;;;;;16.82;62.53;101497.94;4957668;28;20186;-76
2023/05/27 10:40:47;;;;;;;0.70;0.70;;;;;;;16.98;64.01;101507.31;4975402;28;20189;-76
2023/05/27 10:43:19;;;;;;;2.83;1.70;;;;;;;17.37;64.98;101509.00;4976375;28;20288;-75
2023/05/27 10:45:47;;;;;;;1.57;0.90;;;;;;;17.05;62.15;101481.94;4975151;28;20186;-76
2023/05/27 10:48:19;;;;;;;0.60;0.03;;;;;;;16.98;61.23;101470.63;4975121;28;20206;-76
2023/05/27 10:50:53;;;;;;;0.57;0.57;;;;;;;16.91;59.41;101455.34;4975424;28;20185;-75
2023/05/27 10:53:20;;;;;;;0.07;0.07;;;;;;;17.19;58.72;101458.50;4975057;28;20688;-75
2023/05/27 10:55:51;;;;;;;3.13;1.63;;;;;;;17.26;59.07;101466.28;4974742;28;20186;-74
2023/05/27 10:58:18;;;;;;;1.27;0.70;;;;;;;17.09;58.83;101464.41;4957546;28;20209;-75
2023/05/27 11:00:53;;;;;;;1.00;0.90;;;;;;;16.89;59.82;101468.69;4975015;28;20208;-75
2023/05/27 11:03:23;;;;;;;0.50;0.27;;;;;;;16.95;58.38;101445.28;4968671;28;20212;-75
2023/05/27 11:06:03;;;;;;;0.20;0.20;;;;;;;17.06;59.10;101461.47;4975779;28;20212;-75
2023/05/27 11:08:29;;;;;;;0.50;0.50;;;;;;;16.98;58.05;101457.63;4949981;28;20290;-77
2023/05/27 11:11:03;;;;;;;0.20;0.20;;;;;;;17.20;57.81;101457.38;4972073;28;20190;-77
2023/05/27 11:13:31;;;;;;;0.40;0.40;;;;;;;17.34;58.89;101454.38;4968087;28;20609;-77
2023/05/27 11:15:56;;;;;;;0.03;0.03;;;;;;;17.64;59.60;101459.91;4972653;28;20186;-74
2023/05/27 11:18:22;;;;;;;0.80;0.80;;;;;;;17.64;58.29;101438.59;4974900;28;20266;-74
2023/05/27 11:20:47;;;;;;;1.33;1.07;;;;;;;17.00;58.13;101438.78;4973345;28;20213;-77
2023/05/27 11:23:12;;;;;;;0.30;0.30;;;;;;;17.22;58.49;101444.06;4973215;28;20580;-77
2023/05/27 11:25:44;;;;;;;5.00;1.13;;;;;;;17.15;55.60;101427.19;4974587;28;20193;-76